createdAt,value
2018-10-11T00:01:35.296Z,16.50
2018-10-11T00:06:28.606Z,16.40
2018-10-11T00:11:21.867Z,16.40
2018-10-11T00:16:15.117Z,16.40
2018-10-11T00:21:08.426Z,16.30
2018-10-11T00:26:01.694Z,16.10
2018-10-11T00:30:54.920Z,16.20
2018-10-11T00:35:48.165Z,16.10
2018-10-11T00:40:41.423Z,16.10
2018-10-11T00:45:34.782Z,16.20
2018-10-11T00:50:28.059Z,16.10
2018-10-11T00:55:21.355Z,16.20
2018-10-11T01:00:14.596Z,16.00
2018-10-11T01:05:07.908Z,16.00
2018-10-11T01:10:01.244Z,16.00
2018-10-11T01:14:54.587Z,16.10
2018-10-11T01:19:47.827Z,16.00
2018-10-11T01:24:41.209Z,16.00
2018-10-11T01:29:34.488Z,15.90
2018-10-11T01:34:27.740Z,15.80
2018-10-11T01:39:20.997Z,15.70
2018-10-11T01:44:14.268Z,15.80
2018-10-11T01:49:07.558Z,15.70
2018-10-11T01:54:00.892Z,15.50
2018-10-11T01:58:54.329Z,15.40
2018-10-11T02:03:47.557Z,15.50
2018-10-11T02:08:40.805Z,15.50
2018-10-11T02:13:34.033Z,15.50
2018-10-11T02:18:27.372Z,15.30
2018-10-11T02:23:20.645Z,15.30
2018-10-11T02:28:14.034Z,15.10
2018-10-11T02:33:07.359Z,15.10
2018-10-11T02:38:00.702Z,15.00
2018-10-11T02:42:53.965Z,14.90
2018-10-11T02:47:47.241Z,15.10
2018-10-11T02:52:40.473Z,15.30
2018-10-11T02:57:50.879Z,15.10
2018-10-11T03:02:45.121Z,15.10
2018-10-11T03:07:38.460Z,14.90
2018-10-11T03:12:31.750Z,14.80
2018-10-11T03:17:25.012Z,14.70
2018-10-11T03:22:18.263Z,14.60
2018-10-11T03:27:11.528Z,14.40
2018-10-11T03:32:04.842Z,14.40
2018-10-11T03:36:58.774Z,14.30
2018-10-11T03:41:52.010Z,14.30
2018-10-11T03:46:45.273Z,14.30
2018-10-11T03:51:39.101Z,14.50
2018-10-11T03:56:32.381Z,14.40
2018-10-11T04:01:25.723Z,14.30
2018-10-11T04:06:18.974Z,14.20
2018-10-11T04:11:12.206Z,14.20
2018-10-11T04:16:05.493Z,14.30
2018-10-11T04:20:58.774Z,14.20
2018-10-11T04:25:52.018Z,14.00
2018-10-11T04:30:45.274Z,14.00
2018-10-11T04:35:38.548Z,13.90
2018-10-11T04:40:31.811Z,13.90
2018-10-11T04:45:25.098Z,13.90
2018-10-11T04:50:18.362Z,13.80
2018-10-11T04:55:11.649Z,13.70
2018-10-11T05:00:04.931Z,13.80
2018-10-11T05:04:58.190Z,13.80
2018-10-11T05:09:51.421Z,13.90
2018-10-11T05:14:44.763Z,14.00
2018-10-11T05:19:39.138Z,14.00
2018-10-11T05:24:32.409Z,13.90
2018-10-11T05:29:25.908Z,13.70
2018-10-11T05:34:19.204Z,13.60
2018-10-11T05:39:12.476Z,13.40
2018-10-11T05:44:05.907Z,13.30
2018-10-11T05:49:00.717Z,13.30
2018-10-11T05:53:55.463Z,13.40
2018-10-11T05:58:50.289Z,13.40
2018-10-11T06:03:44.737Z,13.50
2018-10-11T06:08:38.092Z,13.60
2018-10-11T06:13:31.416Z,13.60
2018-10-11T06:19:27.980Z,13.70
2018-10-11T06:24:21.308Z,13.60
2018-10-11T06:29:14.620Z,13.70
2018-10-11T06:34:07.956Z,13.70
2018-10-11T06:39:01.794Z,13.90
2018-10-11T06:43:55.364Z,14.00
2018-10-11T06:48:48.771Z,14.10
2018-10-11T06:53:42.058Z,14.20
2018-10-11T06:58:35.576Z,14.40
2018-10-11T07:03:28.898Z,14.70
2018-10-11T07:08:22.400Z,16.10
2018-10-11T07:13:15.648Z,17.00
2018-10-11T07:18:08.913Z,17.70
2018-10-11T07:23:02.184Z,18.10
2018-10-11T07:27:55.417Z,18.20
2018-10-11T07:32:48.676Z,18.40
2018-10-11T07:37:41.956Z,18.70
2018-10-11T07:42:35.378Z,18.90
2018-10-11T07:47:28.618Z,19.10
2018-10-11T07:52:21.975Z,19.30
2018-10-11T07:57:15.270Z,19.90
2018-10-11T08:02:08.573Z,19.80
2018-10-11T08:07:01.945Z,20.10
2018-10-11T08:11:55.364Z,20.20
2018-10-11T08:16:48.921Z,20.70
2018-10-11T08:21:42.151Z,20.40
2018-10-11T08:26:35.414Z,21.30
2018-10-11T08:31:29.293Z,21.70
2018-10-11T08:36:23.237Z,21.90
2018-10-11T08:41:16.493Z,20.30
2018-10-11T08:46:10.033Z,21.40
2018-10-11T08:51:03.348Z,22.30
2018-10-11T08:55:56.638Z,22.70
2018-10-11T09:00:50.826Z,22.20
2018-10-11T09:05:44.736Z,22.70
2018-10-11T09:10:38.551Z,22.40
2018-10-11T09:15:31.421Z,22.20
2018-10-11T09:20:24.764Z,22.10
2018-10-11T09:25:19.085Z,22.00
2018-10-11T09:30:12.424Z,22.20
2018-10-11T09:35:06.526Z,21.80
2018-10-11T09:39:59.825Z,21.80
2018-10-11T09:44:53.074Z,21.70
2018-10-11T09:49:46.372Z,21.60
2018-10-11T09:54:39.718Z,22.00
2018-10-11T09:59:33.083Z,22.30
2018-10-11T10:04:26.356Z,22.10
2018-10-11T10:09:19.660Z,22.00
2018-10-11T10:14:13.252Z,22.10
2018-10-11T10:19:06.560Z,22.20
2018-10-11T10:23:59.834Z,22.20
2018-10-11T10:28:53.221Z,21.90
2018-10-11T10:33:47.834Z,22.20
2018-10-11T10:38:41.442Z,22.20
2018-10-11T10:43:34.807Z,22.00
2018-10-11T10:48:28.249Z,22.30
2018-10-11T10:53:21.507Z,22.50
2018-10-11T10:58:14.740Z,22.60
2018-10-11T11:03:08.023Z,22.20
2018-10-11T11:08:01.341Z,22.20
2018-10-11T11:12:55.148Z,22.30
2018-10-11T11:17:49.314Z,22.10
2018-10-11T11:22:42.617Z,22.20
2018-10-11T11:27:35.981Z,22.50
2018-10-11T11:32:29.854Z,22.90
2018-10-11T11:37:23.118Z,23.00
2018-10-11T11:42:19.869Z,23.00
2018-10-11T11:47:16.469Z,22.90
2018-10-11T11:52:13.012Z,22.80
2018-10-11T11:57:10.502Z,23.00
2018-10-11T12:02:08.551Z,23.10
2018-10-11T12:07:07.112Z,22.70
2018-10-11T12:12:05.363Z,22.80
2018-10-11T12:17:02.963Z,22.80
2018-10-11T12:22:00.454Z,22.80
2018-10-11T12:26:57.811Z,22.80
2018-10-11T12:31:55.533Z,22.70
2018-10-11T12:36:51.182Z,22.60
2018-10-11T12:41:48.128Z,22.50
2018-10-11T12:46:45.944Z,22.80
2018-10-11T12:51:44.269Z,22.80
2018-10-11T12:56:42.863Z,22.80
2018-10-11T13:01:40.039Z,22.80
2018-10-11T13:06:38.382Z,22.80
2018-10-11T13:11:36.628Z,22.80
2018-10-11T13:16:34.914Z,22.90
2018-10-11T13:21:33.538Z,22.90
2018-10-11T13:26:33.497Z,22.90
2018-10-11T13:31:31.231Z,22.90
2018-10-11T13:36:28.826Z,22.90
2018-10-11T13:41:26.052Z,23.00
2018-10-11T13:46:24.064Z,23.00
2018-10-11T13:51:22.084Z,22.80
2018-10-11T13:56:20.512Z,22.70
2018-10-11T14:01:23.123Z,22.70
2018-10-11T14:06:23.120Z,22.70
2018-10-11T14:11:21.040Z,22.60
2018-10-11T14:16:18.718Z,22.60
2018-10-11T14:21:11.983Z,22.80
2018-10-11T14:26:05.305Z,22.90
2018-10-11T14:30:58.553Z,22.90
2018-10-11T14:35:51.822Z,23.20
2018-10-11T14:40:45.113Z,23.10
2018-10-11T14:45:38.426Z,23.20
2018-10-11T14:50:31.708Z,23.00
2018-10-11T14:55:26.045Z,22.80
2018-10-11T15:00:19.620Z,22.60
2018-10-11T15:05:12.848Z,22.40
2018-10-11T15:10:06.216Z,22.20
2018-10-11T15:15:01.882Z,22.10
2018-10-11T15:19:57.940Z,22.10
2018-10-11T15:24:56.212Z,22.10
2018-10-11T15:29:53.599Z,22.00
2018-10-11T15:34:49.140Z,22.00
2018-10-11T15:39:42.480Z,22.10
2018-10-11T15:44:35.746Z,22.20
2018-10-11T15:49:29.014Z,22.20
2018-10-11T15:54:22.286Z,22.20
2018-10-11T15:59:15.542Z,22.20
2018-10-11T16:04:08.864Z,22.20
2018-10-11T16:09:02.235Z,22.20
2018-10-11T16:13:55.945Z,22.20
2018-10-11T16:18:50.022Z,22.10
2018-10-11T16:23:43.273Z,21.90
2018-10-11T16:28:36.556Z,21.80
2018-10-11T16:33:29.833Z,21.60
2018-10-11T16:38:23.128Z,21.50
2018-10-11T16:43:16.382Z,21.30
2018-10-11T16:48:10.396Z,21.10
2018-10-11T16:53:03.746Z,21.00
2018-10-11T16:57:57.169Z,21.00
2018-10-11T17:02:50.465Z,20.90
2018-10-11T17:07:43.757Z,20.70
2018-10-11T17:12:37.813Z,20.60
2018-10-11T17:17:31.081Z,20.40
2018-10-11T17:22:24.361Z,20.30
2018-10-11T17:27:17.653Z,20.20
2018-10-11T17:32:10.861Z,20.10
2018-10-11T17:37:04.132Z,20.10
2018-10-11T17:41:57.541Z,20.00
2018-10-11T17:46:51.821Z,19.90
2018-10-11T17:51:45.177Z,19.90
2018-10-11T17:56:38.443Z,19.80
2018-10-11T18:01:31.764Z,19.80
2018-10-11T18:06:25.637Z,19.70
2018-10-11T18:11:18.963Z,19.70
2018-10-11T18:16:12.364Z,19.60
2018-10-11T18:21:05.683Z,19.50
2018-10-11T18:25:58.957Z,19.50
2018-10-11T18:30:52.243Z,19.60
2018-10-11T18:35:46.147Z,19.60
2018-10-11T18:40:39.381Z,19.40
2018-10-11T18:45:33.528Z,19.30
2018-10-11T18:50:26.849Z,19.20
2018-10-11T18:55:21.287Z,19.10
2018-10-11T19:00:14.574Z,19.00
2018-10-11T19:05:07.975Z,19.00
2018-10-11T19:10:01.230Z,19.00
2018-10-11T19:14:54.474Z,19.00
2018-10-11T19:19:48.339Z,18.80
2018-10-11T19:24:41.587Z,18.70
2018-10-11T19:29:34.816Z,18.50
2018-10-11T19:34:28.057Z,18.30
2018-10-11T19:39:21.366Z,18.40
2018-10-11T19:44:14.655Z,18.40
2018-10-11T19:49:08.670Z,18.40
2018-10-11T19:54:02.896Z,18.30
2018-10-11T19:58:57.751Z,18.20
2018-10-11T20:03:51.080Z,18.10
2018-10-11T20:08:44.335Z,18.10
2018-10-11T20:13:37.641Z,18.10
2018-10-11T20:18:37.786Z,18.20
2018-10-11T20:23:42.212Z,18.10
2018-10-11T20:28:41.488Z,18.00
2018-10-11T20:33:34.872Z,18.00
2018-10-11T20:38:28.726Z,18.00
2018-10-11T20:43:22.479Z,18.00
2018-10-11T20:48:15.700Z,18.00
2018-10-11T20:53:08.966Z,17.90
2018-10-11T20:58:02.245Z,17.90
2018-10-11T21:02:55.491Z,17.90
2018-10-11T21:07:49.405Z,17.90
2018-10-11T21:12:42.649Z,17.80
2018-10-11T21:17:36.103Z,17.80
2018-10-11T21:22:29.373Z,17.70
2018-10-11T21:27:22.667Z,17.70
2018-10-11T21:32:17.615Z,17.70
2018-10-11T21:37:17.073Z,17.70
2018-10-11T21:42:10.395Z,17.60
2018-10-11T21:47:03.795Z,17.50
2018-10-11T21:51:59.852Z,17.40
2018-10-11T21:56:53.931Z,17.40
2018-10-11T22:01:48.447Z,17.20
2018-10-11T22:06:41.803Z,17.10
2018-10-11T22:11:35.404Z,17.10
2018-10-11T22:16:28.865Z,17.10
2018-10-11T22:21:22.074Z,17.20
2018-10-11T22:26:15.359Z,17.30
2018-10-11T22:31:10.629Z,17.20
2018-10-11T22:36:03.897Z,17.20
2018-10-11T22:40:57.304Z,17.20
2018-10-11T22:45:50.624Z,17.30
2018-10-11T22:50:43.877Z,17.20
2018-10-11T22:55:38.958Z,17.10
2018-10-11T23:00:33.683Z,17.10
2018-10-11T23:05:26.946Z,17.20
2018-10-11T23:10:20.546Z,17.20
2018-10-11T23:15:13.889Z,17.20
2018-10-11T23:20:07.526Z,17.20
2018-10-11T23:25:00.825Z,17.20
2018-10-11T23:29:54.152Z,17.10
2018-10-11T23:34:47.491Z,17.10
2018-10-11T23:39:41.306Z,17.00
2018-10-11T23:44:34.586Z,17.00
2018-10-11T23:49:27.832Z,17.00
2018-10-11T23:54:22.735Z,16.90
2018-10-11T23:59:15.997Z,16.80
